createdAt,value
2018-06-04T00:01:51.831Z,99979.67
2018-06-04T00:04:26.268Z,99985.39
2018-06-04T00:06:58.869Z,99985.39
2018-06-04T00:09:31.962Z,99990.27
2018-06-04T00:12:04.641Z,99982.46
2018-06-04T00:14:37.013Z,99985.86
2018-06-04T00:17:09.959Z,99982.03
2018-06-04T00:19:43.294Z,99980.31
2018-06-04T00:22:15.981Z,99980.86
2018-06-04T00:24:49.548Z,99976.70
2018-06-04T00:27:22.088Z,99975.72
2018-06-04T00:29:54.738Z,99978.83
2018-06-04T00:32:28.424Z,99976.77
2018-06-04T00:35:00.993Z,99972.52
2018-06-04T00:37:34.333Z,99976.02
2018-06-04T00:40:07.116Z,99980.60
2018-06-04T00:42:40.169Z,99980.38
2018-06-04T00:45:14.336Z,99980.01
2018-06-04T00:47:47.990Z,99985.06
2018-06-04T00:50:20.704Z,99987.22
2018-06-04T00:52:53.109Z,99981.16
2018-06-04T00:55:25.856Z,99974.45
2018-06-04T00:57:58.292Z,99971.52
2018-06-04T01:00:30.805Z,99966.95
2018-06-04T01:03:03.660Z,99966.95
2018-06-04T01:05:36.173Z,99960.58
2018-06-04T01:08:08.635Z,99961.23
2018-06-04T01:10:42.275Z,99960.99
2018-06-04T01:13:14.983Z,99955.22
2018-06-04T01:15:47.724Z,99949.05
2018-06-04T01:18:20.565Z,99954.97
2018-06-04T01:20:53.080Z,99952.33
2018-06-04T01:23:25.552Z,99955.84
2018-06-04T01:25:58.797Z,99952.49
2018-06-04T01:28:31.224Z,99955.42
2018-06-04T01:31:03.891Z,99956.33
2018-06-04T01:36:08.836Z,99949.13
2018-06-04T01:38:41.572Z,99946.72
2018-06-04T01:41:14.505Z,99951.27
2018-06-04T01:43:47.633Z,99949.95
2018-06-04T01:46:20.101Z,99947.09
2018-06-04T01:48:52.830Z,99946.84
2018-06-04T01:51:25.489Z,99945.65
2018-06-04T01:53:58.033Z,99940.11
2018-06-04T01:56:30.776Z,99935.80
2018-06-04T01:59:03.201Z,99939.31
2018-06-04T02:01:35.803Z,99936.56
2018-06-04T02:04:08.553Z,99931.38
2018-06-04T02:06:41.837Z,99934.05
2018-06-04T02:09:14.536Z,99934.59
2018-06-04T02:11:48.033Z,99935.70
2018-06-04T02:14:20.520Z,99942.88
2018-06-04T02:16:53.387Z,99933.92
2018-06-04T02:19:26.321Z,99928.69
2018-06-04T02:21:59.430Z,99927.55
2018-06-04T02:24:31.820Z,99928.66
2018-06-04T02:27:04.677Z,99924.87
2018-06-04T02:29:37.239Z,99922.11
2018-06-04T02:32:09.781Z,99919.10
2018-06-04T02:34:43.286Z,99921.12
2018-06-04T02:37:15.998Z,99918.44
2018-06-04T02:39:48.784Z,99915.34
2018-06-04T02:42:21.783Z,99916.03
2018-06-04T02:44:54.233Z,99914.22
2018-06-04T02:47:26.713Z,99913.97
2018-06-04T02:49:59.508Z,99908.08
2018-06-04T02:52:32.039Z,99907.15
2018-06-04T02:55:04.456Z,99909.11
2018-06-04T02:57:37.169Z,99908.64
2018-06-04T03:00:09.897Z,99903.98
2018-06-04T03:02:44.664Z,99913.91
2018-06-04T03:05:17.865Z,99911.19
2018-06-04T03:07:50.705Z,99910.70
2018-06-04T03:10:23.338Z,99913.34
2018-06-04T03:12:56.399Z,99912.78
2018-06-04T03:15:28.840Z,99909.55
2018-06-04T03:18:01.382Z,99908.72
2018-06-04T03:20:34.238Z,99899.12
2018-06-04T03:23:07.103Z,99902.87
2018-06-04T03:25:39.690Z,99898.81
2018-06-04T03:28:12.752Z,99897.48
2018-06-04T03:30:45.502Z,99899.39
2018-06-04T03:33:18.113Z,99900.15
2018-06-04T03:35:51.105Z,99901.06
2018-06-04T03:38:24.036Z,99902.30
2018-06-04T03:40:56.621Z,99899.22
2018-06-04T03:43:29.443Z,99898.07
2018-06-04T03:46:02.049Z,99896.79
2018-06-04T03:48:34.570Z,99896.41
2018-06-04T03:51:07.459Z,99892.59
2018-06-04T03:53:40.244Z,99892.60
2018-06-04T03:56:12.705Z,99891.03
2018-06-04T03:58:45.993Z,99890.87
2018-06-04T04:01:18.813Z,99890.44
2018-06-04T04:03:52.277Z,99887.27
2018-06-04T04:06:25.066Z,99886.58
2018-06-04T04:08:57.453Z,99885.27
2018-06-04T04:11:30.351Z,99882.80
2018-06-04T04:14:03.388Z,99883.03
2018-06-04T04:16:38.349Z,99877.52
2018-06-04T04:19:10.867Z,99880.53
2018-06-04T04:21:44.743Z,99885.98
2018-06-04T04:24:17.960Z,99884.73
2018-06-04T04:26:51.746Z,99893.96
2018-06-04T04:29:24.368Z,99883.70
2018-06-04T04:31:57.073Z,99887.01
2018-06-04T04:34:29.625Z,99887.86
2018-06-04T04:37:03.109Z,99893.57
2018-06-04T04:39:36.005Z,99892.58
2018-06-04T04:42:08.579Z,99886.58
2018-06-04T04:44:40.924Z,99882.73
2018-06-04T04:47:14.033Z,99883.56
2018-06-04T04:49:46.976Z,99883.31
2018-06-04T04:52:19.729Z,99884.17
2018-06-04T04:54:53.313Z,99883.59
2018-06-04T04:57:25.897Z,99880.33
2018-06-04T04:59:58.877Z,99876.22
2018-06-04T05:02:31.631Z,99876.00
2018-06-04T05:05:04.142Z,99873.80
2018-06-04T05:07:39.006Z,99871.20
2018-06-04T05:10:11.939Z,99877.71
2018-06-04T05:12:44.624Z,99875.75
2018-06-04T05:15:16.687Z,99872.30
2018-06-04T05:17:50.870Z,99872.47
2018-06-04T05:20:25.184Z,99872.20
2018-06-04T05:23:01.429Z,99874.17
2018-06-04T05:25:34.683Z,99873.48
2018-06-04T05:28:08.740Z,99878.31
2018-06-04T05:30:41.370Z,99874.39
2018-06-04T05:35:48.797Z,99874.85
2018-06-04T05:38:21.441Z,99874.29
2018-06-04T05:40:54.598Z,99878.19
2018-06-04T05:43:27.405Z,99877.20
2018-06-04T05:46:10.701Z,99877.11
2018-06-04T05:48:43.241Z,99880.00
2018-06-04T05:51:16.041Z,99881.33
2018-06-04T05:53:49.110Z,99881.14
2018-06-04T05:56:21.604Z,99883.44
2018-06-04T05:58:54.554Z,99880.86
2018-06-04T06:01:27.018Z,99882.73
2018-06-04T06:04:03.745Z,99876.20
2018-06-04T06:06:36.892Z,99867.77
2018-06-04T06:09:10.779Z,99863.59
2018-06-04T06:11:43.560Z,99854.36
2018-06-04T06:14:16.437Z,99856.37
2018-06-04T06:16:48.843Z,99852.78
2018-06-04T06:19:21.575Z,99858.92
2018-06-04T06:21:55.258Z,99856.37
2018-06-04T06:24:28.704Z,99851.50
2018-06-04T06:27:01.149Z,99854.34
2018-06-04T06:29:34.140Z,99857.61
2018-06-04T06:32:06.764Z,99849.03
2018-06-04T06:34:39.369Z,99847.09
2018-06-04T06:37:12.280Z,99845.81
2018-06-04T06:39:44.817Z,99849.96
2018-06-04T06:42:17.174Z,99842.67
2018-06-04T06:44:50.338Z,99840.02
2018-06-04T06:47:22.969Z,99841.11
2018-06-04T06:49:56.542Z,99842.63
2018-06-04T06:52:29.326Z,99839.70
2018-06-04T06:55:02.311Z,99841.25
2018-06-04T06:57:34.700Z,99833.61
2018-06-04T07:00:07.621Z,99834.98
2018-06-04T07:02:40.054Z,99836.48
2018-06-04T07:05:12.472Z,99836.70
2018-06-04T07:07:44.800Z,99840.53
2018-06-04T07:10:18.446Z,99839.43
2018-06-04T07:12:51.594Z,99835.98
2018-06-04T07:15:24.426Z,99834.38
2018-06-04T07:17:58.073Z,99832.94
2018-06-04T07:20:31.150Z,99834.37
2018-06-04T07:23:03.749Z,99830.84
2018-06-04T07:25:36.667Z,99830.84
2018-06-04T07:28:09.528Z,99829.12
2018-06-04T07:30:43.788Z,99829.91
2018-06-04T07:33:18.211Z,99828.14
2018-06-04T07:35:50.916Z,99825.61
2018-06-04T07:38:23.967Z,99827.45
2018-06-04T07:40:57.669Z,99828.61
2018-06-04T07:43:30.376Z,99823.40
2018-06-04T07:46:03.479Z,99824.75
2018-06-04T07:48:36.253Z,99821.55
2018-06-04T07:51:08.786Z,99827.66
2018-06-04T07:53:41.196Z,99822.84
2018-06-04T07:56:14.159Z,99814.80
2018-06-04T07:58:46.564Z,99815.78
2018-06-04T08:01:18.881Z,99810.88
2018-06-04T08:03:51.758Z,99805.78
2018-06-04T08:06:25.274Z,99807.35
2018-06-04T08:08:58.099Z,99803.59
2018-06-04T08:11:30.671Z,99800.49
2018-06-04T08:14:03.980Z,99795.34
2018-06-04T08:16:36.856Z,99792.42
2018-06-04T08:19:10.554Z,99787.16
2018-06-04T08:21:43.222Z,99790.17
2018-06-04T08:24:16.300Z,99794.33
2018-06-04T08:26:50.029Z,99786.84
2018-06-04T08:29:22.782Z,99785.36
2018-06-04T08:31:55.479Z,99786.00
2018-06-04T08:34:28.194Z,99786.59
2018-06-04T08:37:00.875Z,99783.55
2018-06-04T08:39:33.590Z,99780.28
2018-06-04T08:42:06.884Z,99784.95
2018-06-04T08:44:40.845Z,99784.70
2018-06-04T08:47:14.742Z,99785.05
2018-06-04T08:49:47.689Z,99780.05
2018-06-04T08:52:20.300Z,99782.06
2018-06-04T08:54:52.633Z,99777.92
2018-06-04T08:57:25.477Z,99779.16
2018-06-04T08:59:58.010Z,99773.88
2018-06-04T09:02:30.578Z,99773.61
2018-06-04T09:05:03.453Z,99767.82
2018-06-04T09:07:35.983Z,99767.97
2018-06-04T09:10:09.079Z,99769.17
2018-06-04T09:12:43.273Z,99763.38
2018-06-04T09:15:19.194Z,99765.83
2018-06-04T09:17:52.588Z,99772.53
2018-06-04T09:20:25.640Z,99772.05
2018-06-04T09:22:58.553Z,99769.30
2018-06-04T09:25:31.273Z,99771.28
2018-06-04T09:28:04.404Z,99767.71
2018-06-04T09:30:37.006Z,99769.33
2018-06-04T09:33:10.417Z,99760.55
2018-06-04T09:35:44.539Z,99759.84
2018-06-04T09:38:17.841Z,99765.89
2018-06-04T09:40:50.568Z,99770.41
2018-06-04T09:43:23.411Z,99765.62
2018-06-04T09:45:55.854Z,99766.91
2018-06-04T09:48:28.401Z,99762.77
2018-06-04T09:51:01.183Z,99763.34
2018-06-04T09:53:34.780Z,99761.19
2018-06-04T09:56:12.832Z,99766.48
2018-06-04T09:58:46.745Z,99762.96
2018-06-04T10:01:21.041Z,99769.07
2018-06-04T10:03:54.225Z,99759.64
2018-06-04T10:06:26.618Z,99756.67
2018-06-04T10:08:59.143Z,99761.02
2018-06-04T10:11:32.215Z,99763.56
2018-06-04T10:14:05.289Z,99759.11
2018-06-04T10:16:37.956Z,99756.45
2018-06-04T10:19:13.570Z,99754.47
2018-06-04T10:21:47.620Z,99750.52
2018-06-04T10:24:20.765Z,99750.31
2018-06-04T10:26:55.122Z,99750.53
2018-06-04T10:29:29.143Z,99748.54
2018-06-04T10:32:02.815Z,99744.30
2018-06-04T10:34:35.844Z,99749.37
2018-06-04T10:37:12.413Z,99752.45
2018-06-04T10:39:45.493Z,99747.07
2018-06-04T10:42:20.702Z,99750.71
2018-06-04T10:44:53.267Z,99753.20
2018-06-04T10:47:25.656Z,99750.27
2018-06-04T10:49:58.407Z,99753.98
2018-06-04T10:52:31.279Z,99745.93
2018-06-04T10:55:04.395Z,99747.19
2018-06-04T10:57:37.403Z,99752.20
2018-06-04T11:00:10.637Z,99749.33
2018-06-04T11:02:47.869Z,99749.47
2018-06-04T11:05:21.895Z,99741.89
2018-06-04T11:07:54.431Z,99741.22
2018-06-04T11:10:27.039Z,99738.31
2018-06-04T11:13:00.831Z,99738.59
2018-06-04T11:15:33.500Z,99735.45
2018-06-04T11:18:06.002Z,99726.98
2018-06-04T11:20:38.581Z,99730.52
2018-06-04T11:23:11.282Z,99728.69
2018-06-04T11:25:43.850Z,99730.37
2018-06-04T11:28:17.014Z,99733.34
2018-06-04T11:30:49.680Z,99726.50
2018-06-04T11:33:22.074Z,99724.55
2018-06-04T11:35:55.661Z,99720.33
2018-06-04T11:38:32.807Z,99716.12
2018-06-04T11:41:07.754Z,99716.09
2018-06-04T11:43:41.295Z,99714.41
2018-06-04T11:46:17.028Z,99708.39
2018-06-04T11:48:50.621Z,99709.97
2018-06-04T11:51:25.898Z,99706.08
2018-06-04T11:53:59.791Z,99701.73
2018-06-04T11:56:38.250Z,99706.38
2018-06-04T11:59:12.405Z,99704.12
2018-06-04T12:01:46.517Z,99704.27
2018-06-04T12:04:20.201Z,99706.52
2018-06-04T12:06:59.757Z,99702.55
2018-06-04T12:09:35.480Z,99701.78
2018-06-04T12:12:10.016Z,99699.40
2018-06-04T12:14:45.648Z,99699.22
2018-06-04T12:17:19.637Z,99704.70
2018-06-04T12:19:53.494Z,99700.52
2018-06-04T12:22:25.920Z,99696.84
2018-06-04T12:24:58.936Z,99691.67
2018-06-04T12:27:37.709Z,99686.84
2018-06-04T12:30:13.796Z,99690.34
2018-06-04T12:32:50.348Z,99684.18
2018-06-04T12:35:24.753Z,99689.11
2018-06-04T12:37:58.994Z,99684.52
2018-06-04T12:40:34.037Z,99680.52
2018-06-04T12:43:08.703Z,99687.23
2018-06-04T12:45:46.132Z,99683.41
2018-06-04T12:48:18.934Z,99686.41
2018-06-04T12:50:51.804Z,99690.73
2018-06-04T12:53:24.950Z,99690.92
2018-06-04T12:55:58.769Z,99688.52
2018-06-04T12:58:38.582Z,99680.58
2018-06-04T13:01:12.983Z,99679.87
2018-06-04T13:03:46.773Z,99676.84
2018-06-04T13:06:20.431Z,99674.84
2018-06-04T13:08:56.780Z,99674.09
2018-06-04T13:11:31.676Z,99664.52
2018-06-04T13:14:08.429Z,99665.74
2018-06-04T13:16:46.676Z,99662.92
2018-06-04T13:19:21.560Z,99666.19
2018-06-04T13:21:55.948Z,99657.50
2018-06-04T13:24:29.524Z,99655.06
2018-06-04T13:27:04.646Z,99651.45
2018-06-04T13:29:38.794Z,99652.50
2018-06-04T13:32:13.893Z,99650.10
2018-06-04T13:34:48.501Z,99643.00
2018-06-04T13:37:21.766Z,99642.19
2018-06-04T13:39:55.762Z,99639.70
2018-06-04T13:42:31.214Z,99639.74
2018-06-04T13:45:09.555Z,99633.59
2018-06-04T13:47:45.193Z,99633.91
2018-06-04T13:50:18.276Z,99629.52
2018-06-04T13:52:51.119Z,99627.18
2018-06-04T13:55:25.392Z,99630.69
2018-06-04T13:58:01.093Z,99634.75
2018-06-04T14:00:52.936Z,99629.22
2018-06-04T14:03:30.205Z,99624.30
2018-06-04T14:06:04.504Z,99624.56
2018-06-04T14:08:44.677Z,99613.71
2018-06-04T14:11:17.294Z,99616.72
2018-06-04T14:13:49.793Z,99615.75
2018-06-04T14:16:24.031Z,99616.38
2018-06-04T14:18:57.703Z,99619.86
2018-06-04T14:21:35.928Z,99615.13
2018-06-04T14:24:09.279Z,99615.42
2018-06-04T14:26:41.753Z,99614.39
2018-06-04T14:29:15.407Z,99611.94
2018-06-04T14:31:49.793Z,99611.13
2018-06-04T14:34:24.003Z,99613.02
2018-06-04T14:37:03.070Z,99600.48
2018-06-04T14:39:38.762Z,99608.12
2018-06-04T14:42:17.024Z,99609.23
2018-06-04T14:44:51.406Z,99601.58
2018-06-04T14:47:23.968Z,99602.02
2018-06-04T14:50:05.223Z,99600.12
2018-06-04T14:52:42.677Z,99599.85
2018-06-04T14:55:15.335Z,99600.94
2018-06-04T14:57:51.228Z,99600.17
2018-06-04T15:00:26.897Z,99594.64
2018-06-04T15:03:04.012Z,99596.08
2018-06-04T15:05:39.359Z,99598.27
2018-06-04T15:08:14.870Z,99587.19
2018-06-04T15:10:47.582Z,99583.88
2018-06-04T15:13:21.537Z,99592.23
2018-06-04T15:15:55.043Z,99582.80
2018-06-04T15:18:30.866Z,99579.40
2018-06-04T15:21:04.609Z,99573.28
2018-06-04T15:23:38.807Z,99576.50
2018-06-04T15:26:13.594Z,99568.41
2018-06-04T15:28:48.403Z,99562.50
2018-06-04T15:31:32.529Z,99567.59
2018-06-04T15:34:09.368Z,99567.50
2018-06-04T15:36:42.816Z,99571.23
2018-06-04T15:39:19.643Z,99559.34
2018-06-04T15:41:53.651Z,99565.16
2018-06-04T15:44:27.580Z,99563.94
2018-06-04T15:47:11.516Z,99558.42
2018-06-04T15:49:50.500Z,99559.03
2018-06-04T15:52:24.109Z,99557.91
2018-06-04T15:55:02.923Z,99552.09
2018-06-04T15:57:37.057Z,99552.79
2018-06-04T16:00:14.945Z,99557.41
2018-06-04T16:02:47.548Z,99558.73
2018-06-04T16:05:21.696Z,99552.87
2018-06-04T16:07:57.448Z,99546.84
2018-06-04T16:10:34.412Z,99543.48
2018-06-04T16:13:08.038Z,99546.20
2018-06-04T16:15:41.538Z,99546.70
2018-06-04T16:18:19.480Z,99547.33
2018-06-04T16:21:05.701Z,99550.65
2018-06-04T16:23:40.656Z,99541.06
2018-06-04T16:26:16.550Z,99552.34
2018-06-04T16:28:50.627Z,99551.41
2018-06-04T16:31:24.567Z,99543.27
2018-06-04T16:34:01.077Z,99543.49
2018-06-04T16:36:35.848Z,99541.25
2018-06-04T16:39:12.273Z,99539.60
2018-06-04T16:41:46.894Z,99538.11
2018-06-04T16:44:21.952Z,99539.77
2018-06-04T16:47:03.211Z,99537.02
2018-06-04T16:49:37.924Z,99530.88
2018-06-04T16:52:15.707Z,99538.36
2018-06-04T16:54:54.397Z,99533.33
2018-06-04T16:57:35.715Z,99529.32
2018-06-04T17:00:09.789Z,99533.05
2018-06-04T17:02:45.636Z,99531.59
2018-06-04T17:05:19.039Z,99534.31
2018-06-04T17:07:52.249Z,99529.02
2018-06-04T17:10:27.989Z,99525.47
2018-06-04T17:13:05.289Z,99531.47
2018-06-04T17:15:38.216Z,99534.63
2018-06-04T17:18:14.575Z,99527.84
2018-06-04T17:20:49.498Z,99520.16
2018-06-04T17:23:22.628Z,99529.31
2018-06-04T17:25:59.502Z,99524.19
2018-06-04T17:28:34.279Z,99524.74
2018-06-04T17:31:11.429Z,99521.14
2018-06-04T17:33:47.731Z,99516.38
2018-06-04T17:36:24.744Z,99520.55
2018-06-04T17:38:59.562Z,99524.88
2018-06-04T17:41:35.178Z,99518.25
2018-06-04T17:44:08.478Z,99517.00
2018-06-04T17:46:42.223Z,99522.30
2018-06-04T17:49:15.980Z,99524.92
2018-06-04T17:51:49.198Z,99527.33
2018-06-04T17:54:23.915Z,99527.83
2018-06-04T17:56:57.158Z,99528.28
2018-06-04T17:59:32.349Z,99524.77
2018-06-04T18:02:06.943Z,99529.14
2018-06-04T18:04:42.853Z,99529.84
2018-06-04T18:07:23.681Z,99528.82
2018-06-04T18:10:06.156Z,99537.81
2018-06-04T18:12:40.774Z,99547.44
2018-06-04T18:15:17.051Z,99547.06
2018-06-04T18:17:50.652Z,99544.49
2018-06-04T18:20:26.357Z,99544.67
2018-06-04T18:23:01.638Z,99545.80
2018-06-04T18:25:38.135Z,99546.95
2018-06-04T18:28:16.497Z,99547.05
2018-06-04T18:30:51.553Z,99550.66
2018-06-04T18:33:27.124Z,99551.36
2018-06-04T18:36:02.653Z,99550.04
2018-06-04T18:38:36.489Z,99554.16
2018-06-04T18:41:13.981Z,99562.75
2018-06-04T18:43:50.805Z,99564.34
2018-06-04T18:46:29.922Z,99567.74
2018-06-04T18:49:04.580Z,99567.75
2018-06-04T18:51:38.711Z,99569.68
2018-06-04T18:54:16.008Z,99574.74
2018-06-04T18:56:51.930Z,99574.37
2018-06-04T18:59:29.603Z,99581.73
2018-06-04T19:02:06.410Z,99584.10
2018-06-04T19:04:39.538Z,99580.00
2018-06-04T19:07:14.410Z,99586.53
2018-06-04T19:09:57.911Z,99582.02
2018-06-04T19:12:34.385Z,99581.59
2018-06-04T19:15:20.360Z,99579.66
2018-06-04T19:17:57.604Z,99585.75
2018-06-04T19:20:35.245Z,99591.86
2018-06-04T19:23:11.919Z,99596.86
2018-06-04T19:25:48.297Z,99596.86
2018-06-04T19:28:25.200Z,99606.39
2018-06-04T19:31:02.021Z,99610.19
2018-06-04T19:33:37.132Z,99610.09
2018-06-04T19:36:12.297Z,99612.08
2018-06-04T19:38:45.419Z,99617.05
2018-06-04T19:41:18.012Z,99617.47
2018-06-04T19:44:19.651Z,99618.36
2018-06-04T19:46:54.671Z,99622.21
2018-06-04T19:49:31.323Z,99627.20
2018-06-04T19:52:07.232Z,99634.13
2018-06-04T19:54:42.847Z,99636.14
2018-06-04T19:57:17.787Z,99636.44
2018-06-04T19:59:55.274Z,99644.67
2018-06-04T20:02:32.189Z,99644.89
2018-06-04T20:05:07.070Z,99647.25
2018-06-04T20:07:43.042Z,99650.95
2018-06-04T20:10:24.934Z,99654.20
2018-06-04T20:13:00.401Z,99655.73
2018-06-04T20:15:36.060Z,99658.22
2018-06-04T20:18:13.728Z,99654.99
2018-06-04T20:20:47.773Z,99660.40
2018-06-04T20:23:23.440Z,99660.92
2018-06-04T20:25:59.726Z,99668.00
2018-06-04T20:28:33.126Z,99674.34
2018-06-04T20:31:07.301Z,99675.63
2018-06-04T20:33:41.381Z,99674.88
2018-06-04T20:36:17.307Z,99674.38
2018-06-04T20:38:53.917Z,99674.55
2018-06-04T20:41:29.035Z,99675.99
2018-06-04T20:44:09.069Z,99673.22
2018-06-04T20:46:44.692Z,99678.63
2018-06-04T20:49:23.199Z,99684.48
2018-06-04T20:52:01.718Z,99684.62
2018-06-04T20:54:45.300Z,99685.95
2018-06-04T20:57:23.466Z,99695.86
2018-06-04T21:00:00.423Z,99694.41
2018-06-04T21:02:35.619Z,99692.53
2018-06-04T21:05:08.397Z,99689.20
2018-06-04T21:07:41.816Z,99692.05
2018-06-04T21:10:17.956Z,99689.87
2018-06-04T21:12:54.722Z,99691.91
2018-06-04T21:15:30.743Z,99696.13
2018-06-04T21:18:04.629Z,99695.06
2018-06-04T21:20:38.029Z,99696.05
2018-06-04T21:23:11.676Z,99704.66
2018-06-04T21:25:46.355Z,99707.52
2018-06-04T21:28:23.098Z,99707.12
2018-06-04T21:30:56.497Z,99702.41
2018-06-04T21:33:31.451Z,99704.91
2018-06-04T21:36:05.563Z,99702.73
2018-06-04T21:38:40.544Z,99707.70
2018-06-04T21:41:15.353Z,99709.28
2018-06-04T21:43:50.393Z,99710.11
2018-06-04T21:46:26.623Z,99712.70
2018-06-04T21:49:02.461Z,99713.28
2018-06-04T21:51:39.648Z,99713.73
2018-06-04T21:54:14.087Z,99716.75
2018-06-04T21:56:47.437Z,99723.58
2018-06-04T21:59:20.026Z,99726.25
2018-06-04T22:01:54.815Z,99726.59
2018-06-04T22:04:31.246Z,99726.31
2018-06-04T22:07:04.566Z,99722.64
2018-06-04T22:09:41.541Z,99725.92
2018-06-04T22:12:14.604Z,99732.67
2018-06-04T22:14:59.463Z,99732.75
2018-06-04T22:17:36.527Z,99736.62
2018-06-04T22:20:30.650Z,99740.45
2018-06-04T22:23:03.812Z,99743.45
2018-06-04T22:25:38.620Z,99745.19
2018-06-04T22:28:33.428Z,99743.28
2018-06-04T22:31:07.628Z,99737.61
2018-06-04T22:33:44.565Z,99739.41
2018-06-04T22:36:22.247Z,99738.98
2018-06-04T22:38:55.176Z,99745.46
2018-06-04T22:41:28.508Z,99738.20
2018-06-04T22:44:03.077Z,99746.83
2018-06-04T22:46:37.758Z,99742.08
2018-06-04T22:49:10.988Z,99744.02
2018-06-04T22:51:44.837Z,99742.73
2018-06-04T22:54:18.263Z,99741.22
2018-06-04T22:56:51.583Z,99740.70
2018-06-04T22:59:25.304Z,99741.11
2018-06-04T23:01:58.293Z,99741.14
2018-06-04T23:04:31.294Z,99743.08
2018-06-04T23:07:08.197Z,99737.70
2018-06-04T23:09:41.151Z,99737.91
2018-06-04T23:12:16.949Z,99738.72
2018-06-04T23:14:52.189Z,99737.73
2018-06-04T23:17:25.474Z,99736.23
2018-06-04T23:20:00.875Z,99731.53
2018-06-04T23:22:35.407Z,99730.15
2018-06-04T23:25:07.934Z,99733.67
2018-06-04T23:27:40.944Z,99735.45
2018-06-04T23:30:15.132Z,99734.06
2018-06-04T23:32:47.751Z,99737.44
2018-06-04T23:35:20.494Z,99736.75
2018-06-04T23:37:53.070Z,99733.81
2018-06-04T23:40:25.487Z,99728.66
2018-06-04T23:42:58.271Z,99733.47
2018-06-04T23:45:30.981Z,99729.06
2018-06-04T23:48:03.602Z,99723.30
2018-06-04T23:50:36.668Z,99726.98
2018-06-04T23:53:09.200Z,99723.73
2018-06-04T23:55:42.844Z,99723.71
2018-06-04T23:58:18.388Z,99724.80
